リオブランコ国際空港の過去48時間の天気

リオブランコ国際空港 (Rio Branco)

現在時刻: 2/6 15:12 -05 (2/6 20:12 UTC) 以下の時間は現地時間です。

過去48時間のMETAR気象情報
時間 風向 風速(m/s) 視程 気温(℃) 湿度(%) 気圧(hPa) 天気現象
6 15:00 北西 3 10km以上 29 70 1010
6 14:00 西南西 2 10km以上 28 74 1011
6 13:00 北北西 3 10km以上 29 74 1012
6 12:00 西 2 10km以上 27 84 1014
6 11:00 西北西 2 10km以上 26 84 1014
6 10:00 西北西 2 10km以上 25 89 1015
6 09:00 北北西 2 10km以上 23 100 1015
6 08:08 北西 2 8000m 23 100 1015
6 08:00 西北西 2 8000m 23 94 1015
6 07:00 北西 2 6000m 22 100 1014 弱い雨
6 06:00 2 3000m 22 100 1013 弱い雨
6 05:00 北北西 1 3000m 22 100 1012 もや
6 04:00 西北西 2 2000m 22 100 1012 もや
6 03:00 東北東 3 800m 22 100 1012
6 02:41 2 150m 22 100 1012
6 02:34 2 800m 22 100 1012
6 02:00 2 2000m 22 100 1012 もや
6 01:00 1 2000m 22 100 1013 弱い雨
6 00:00 東北東 1 2000m 22 100 1013 弱い雨
5 23:00 1 3000m 22 100 1014 弱い雨
5 22:00 北北東 1 2000m 22 100 1014
5 21:00 南西 4 1500m 22 100 1014 強い雨
5 20:00 南西 3 1500m 24 94 1014 強い雨
5 19:00 東南東 2 10km以上 25 100 1012 周辺でしゅう雨
5 18:00 1 10km以上 26 94 1010 周辺でしゅう雨
5 17:00 北北東 1 10km以上 27 84 1010 周辺でしゅう雨
5 16:00 北北西 2 10km以上 27 84 1010 周辺でしゅう雨
5 15:00 東北東 2 10km以上 26 94 1010 弱い雨
5 14:00 1 10km以上 27 89 1011 弱い雨
5 13:00 南南西 2 10km以上 29 74 1012 周辺でしゅう雨
5 12:00 2 10km以上 28 79 1014
5 11:00 南南西 1 10km以上 28 79 1015
5 10:00 2 10km以上 27 79 1016
5 09:00 南東 2 10km以上 25 94 1016
5 08:00 南東 2 8000m 24 100 1016
5 07:00 静穏 0 8000m 24 94 1016 弱い霧雨
5 06:00 南南東 1 10km以上 23 100 1014
5 05:00 1 10km以上 23 100 1013
5 04:00 1 10km以上 23 100 1013
5 03:00 静穏 0 10km以上 23 100 1013
5 02:00 1 10km以上 23 100 1013
5 01:00 2 10km以上 23 100 1014
5 00:00 南南西 1 10km以上 23 100 1015
4 23:00 2 10km以上 24 100 1015
4 22:00 1 10km以上 24 94 1015
4 21:00 静穏 0 10km以上 24 94 1015
4 20:00 静穏 0 10km以上 24 94 1014
4 19:00 静穏 0 10km以上 25 94 1013
4 18:00 2 8000m 26 89 1012 周辺でしゅう雨
4 17:00 北西 2 8000m 27 84 1011 周辺でしゅう雨
4 16:00 北北西 2 8000m 27 84 1011 周辺でしゅう雨
SBRB 062000Z 31005KT 9999 SCT025 29/23 Q1010
SBRB 061900Z 24004KT 270V020 9999 BKN025 28/23 Q1011
SBRB 061800Z 33005KT 290V100 9999 BKN020 FEW025TCU 29/24 Q1012
SBRB 061700Z 28003KT 9999 BKN018 SCT100 27/24 Q1014
SBRB 061600Z 30004KT 9999 SCT011 BKN100 26/23 Q1014
SBRB 061500Z 30004KT 9999 BKN010 BKN100 25/23 Q1015
SBRB 061400Z 34003KT 9999 BKN007 BKN100 23/23 Q1015
SBRB 061308Z 32003KT 270V020 8000 BKN006 BKN100 23/23 Q1015
SBRB 061300Z 29003KT 8000 SCT005 BKN100 23/22 Q1015
SBRB 061200Z 32004KT 6000 -RA BKN005 BKN100 22/22 Q1014
SBRB 061100Z 35004KT 3000 -RA BKN004 22/22 Q1013
SBRB 061000Z 33001KT 3000 BR VV002 22/22 Q1012
SBRB 060900Z 30003KT 2000 BR VV002 22/22 Q1012
SBRB 060800Z 07005KT 0800 R06///// R24///// FG VV002 22/22 Q1012
SBRB 060741Z 09004KT 0150 R06///// R24///// FG VV002 22/22 Q1012
SBRB 060734Z 08003KT 0800 R06///// R24///// FG BKN003 22/22 Q1012
SBRB 060700Z 08003KT 2000 BR BKN003 22/22 Q1012
SBRB 060600Z 36002KT 2000 -RA BKN003 22/22 Q1013
SBRB 060500Z 07002KT 2000 -RA BKN003 FEW030TCU 22/22 Q1013
SBRB 060400Z 01002KT 3000 -RA BKN008 FEW030TCU 22/22 Q1014 RERA
SBRB 060300Z 03002KT 2000 RA BKN007 FEW030TCU 22/22 Q1014 RERA
SBRB 060200Z 23007KT 1500 R06///// R24///// +RA BKN007 FEW030TCU 22/22 Q1014 RERA
SBRB 060100Z 23006KT 170V260 1500 R06///// R24///// +RA BKN007 FEW030TCU 24/23 Q1014
SBRB 060000Z 11003KT 9999 VCSH FEW025 FEW030TCU BKN050 25/25 Q1012
SBRB 052300Z 09002KT 9999 VCSH FEW025 FEW030TCU SCT070 26/25 Q1010
SBRB 052200Z 03002KT 9999 VCSH FEW025 FEW030TCU SCT070 27/24 Q1010
SBRB 052100Z 34003KT 9999 VCSH SCT025 FEW030TCU SCT070 27/24 Q1010
SBRB 052000Z 06004KT 9999 -RA SCT025 FEW030TCU SCT070 26/25 Q1010
SBRB 051900Z 10002KT 9999 -RA SCT025 FEW030TCU SCT070 27/25 Q1011
SBRB 051800Z 20003KT 100V260 9999 VCSH BKN023 FEW030TCU BKN070 29/24 Q1012
SBRB 051700Z 18004KT 9999 BKN017 BKN080 28/24 Q1014
SBRB 051600Z 21002KT 9999 BKN014 BKN080 28/24 Q1015
SBRB 051500Z 18003KT 9999 BKN011 BKN080 27/23 Q1016
SBRB 051400Z 14003KT 9999 BKN009 BKN080 25/24 Q1016
SBRB 051300Z 14003KT 8000 BKN004 BKN080 24/24 Q1016
SBRB 051200Z 00000KT 8000 -DZ BKN004 BKN080 24/23 Q1016
SBRB 051100Z 16002KT 9999 FEW003 BKN100 23/23 Q1014
SBRB 051000Z 17001KT 9999 FEW004 BKN100 23/23 Q1013
SBRB 050900Z 17001KT 9999 FEW003 BKN100 23/23 Q1013
SBRB 050800Z 00000KT 9999 FEW003 BKN100 23/23 Q1013
SBRB 050700Z 18002KT 9999 SCT003 BKN100 23/23 Q1013
SBRB 050600Z 18003KT 9999 BKN003 BKN100 23/23 Q1014
SBRB 050500Z 20002KT 9999 BKN003 BKN100 23/23 Q1015
SBRB 050400Z 19003KT 9999 FEW003 BKN100 24/24 Q1015
SBRB 050300Z 19002KT 9999 FEW030TCU BKN040 24/23 Q1015
SBRB 050200Z 00000KT 9999 FEW030TCU BKN040 24/23 Q1015
SBRB 050100Z 00000KT 9999 FEW030TCU BKN080 24/23 Q1014
SBRB 050000Z 00000KT 9999 FEW030TCU BKN080 25/24 Q1013
SBRB 042300Z 35003KT 8000 VCSH FEW017 FEW030TCU BKN080 26/24 Q1012
SBRB 042200Z 31004KT 8000 VCSH SCT017 FEW030TCU BKN080 27/24 Q1011
SBRB 042100Z 34004KT 300V010 8000 VCSH BKN017 FEW030TCU BKN080 27/24 Q1011